Arimo, Idaho
Current Conditions -  °F | °C
As of 2:53 PM on Tuesday 25 Nov 2014 (Local Time) from KPIH Reporting Station
Broken Clouds Broken Clouds  
Wind Chill: 39°   Ceiling: 2600
Heat Index: 48°   Visibility: 10mi
Dew Point: 39°   Wind: 31mph
Humidity: 71%   Direction: 230°SW
Pressure: 30.14"   Gusts: 45mph
Location:  42.56°N, 112.17°W
Report Text: KPIH 252153Z 23027G39KT 10SM BKN026 BKN031 09/04 A3014 RMK AO2 PK WND 23039/2152 SLP204 T00890039
Loading
Personal Weather Stations






























Interactive Weather Map New forecast layout! Learn more

10-Day Weather Forecast

Advertisements
Track Severe Weather on mobile